Terminal Aerodrome Forecast
Issued by NWS Cleveland, OH

Home | Current Version | Previous Version | Graphics & Text | Print | Product List | Glossary Off
Versions: 1 2 3 4 5 6 7 8 9 10 11 12 13 14 15 16 17 18 19 20 21 22 23 24

000
FTUS41 KCLE 231229 AAB
TAFERI
TAF AMD
KERI 231229Z 2312/2412 16012G20KT P6SM SCT009 OVC025
     FM231400 16015G25KT 5SM -RA BR OVC009
     FM232100 22012KT 3SM -RA BR OVC003
     FM232200 22012KT 4SM BR OVC003
     FM240400 26009KT 1/2SM FG OVC003
     FM241100 31004KT 1 1/2SM BR OVC007=

USA.gov is the U.S. government's official web portal to all federal, state and local government web resources and services.